Time;durP1;ratioP1;P1;durP2;ratioP2;P2;SDS_P1;SDS_P2;PMS_P1;PMS_P2;Temp;Humidity;BMP_temperature;BMP_pressure;BME280_temperature;BME280_humidity;BME280_pressure;Samples;Min_cycle;Max_cycle;Signal;HPM_P1;HPM_P2
2022/04/25 00:02:14;;;;;;;11.32;7.20;;;;;;;8.31;65.09;100873.38;5081313;28;20024;-46
2022/04/25 00:04:40;;;;;;;14.32;7.90;;;;;;;8.28;65.51;100868.50;5080473;28;20308;-46
2022/04/25 00:07:05;;;;;;;11.27;6.68;;;;;;;8.23;65.79;100876.34;5070649;28;20035;-46
2022/04/25 00:09:31;;;;;;;12.98;7.35;;;;;;;8.24;65.39;100880.66;5073751;28;20039;-48
2022/04/25 00:11:57;;;;;;;13.25;7.55;;;;;;;8.19;65.88;100882.16;5072613;28;20029;-46
2022/04/25 00:14:22;;;;;;;14.02;7.65;;;;;;;8.16;65.89;100887.13;5076923;28;20036;-46
2022/04/25 00:16:49;;;;;;;12.85;7.55;;;;;;;8.13;66.15;100884.94;5073641;28;20039;-45
2022/04/25 00:19:15;;;;;;;10.82;6.15;;;;;;;8.15;65.93;100886.31;5075895;28;20473;-46
2022/04/25 00:21:40;;;;;;;15.75;7.53;;;;;;;8.19;65.75;100890.16;5074483;28;20197;-48
2022/04/25 00:24:06;;;;;;;15.18;7.55;;;;;;;8.20;66.15;100885.63;5074147;28;20019;-48
2022/04/25 00:26:32;;;;;;;11.77;6.90;;;;;;;8.24;66.06;100886.78;5076067;28;20032;-45
2022/04/25 00:28:57;;;;;;;13.25;7.72;;;;;;;8.29;65.71;100892.28;5072125;28;20463;-46
2022/04/25 00:31:23;;;;;;;11.45;6.82;;;;;;;8.31;65.50;100898.22;5074489;28;20032;-46
2022/04/25 00:33:48;;;;;;;13.77;7.30;;;;;;;8.29;65.83;100889.63;5073406;28;20039;-46
2022/04/25 00:36:14;;;;;;;11.73;7.47;;;;;;;8.17;66.24;100891.44;5075487;28;20482;-47
2022/04/25 00:38:40;;;;;;;12.40;7.40;;;;;;;8.10;66.19;100894.22;5077411;28;20028;-48
2022/04/25 00:41:06;;;;;;;13.30;7.20;;;;;;;8.09;66.34;100884.59;5074400;27;20030;-46
2022/04/25 00:43:32;;;;;;;15.40;7.90;;;;;;;8.01;66.72;100895.56;5076923;28;20055;-45
2022/04/25 00:45:58;;;;;;;12.65;7.88;;;;;;;7.98;66.72;100885.34;5076306;28;20485;-46
2022/04/25 00:48:23;;;;;;;14.00;7.85;;;;;;;7.98;66.84;100892.53;5077183;28;20434;-46
2022/04/25 00:50:49;;;;;;;14.63;7.47;;;;;;;7.99;66.71;100894.16;5073855;28;20553;-45
2022/04/25 00:53:15;;;;;;;14.57;7.05;;;;;;;8.01;66.80;100895.56;5075672;28;20090;-48
2022/04/25 00:55:41;;;;;;;17.88;6.95;;;;;;;7.96;66.76;100900.78;5071063;28;20264;-48
2022/04/25 00:58:07;;;;;;;12.52;7.63;;;;;;;8.00;66.56;100896.59;5076993;28;20474;-46
2022/04/25 01:00:36;;;;;;;15.98;7.63;;;;;;;8.06;66.62;100906.38;5073700;28;20055;-46
2022/04/25 01:03:02;;;;;;;15.52;7.78;;;;;;;8.08;66.41;100898.97;5080630;28;20674;-45
2022/04/25 01:05:28;;;;;;;11.48;7.20;;;;;;;8.05;66.38;100894.06;5076286;28;20036;-46
2022/04/25 01:07:53;;;;;;;15.35;7.75;;;;;;;8.02;66.49;100899.03;5076196;28;20055;-48
2022/04/25 01:10:19;;;;;;;13.10;8.05;;;;;;;7.95;66.94;100899.16;5073648;28;20031;-47
2022/04/25 01:12:44;;;;;;;12.52;6.80;;;;;;;7.90;66.67;100896.34;5073095;28;20024;-46
2022/04/25 01:15:12;;;;;;;12.13;7.20;;;;;;;7.89;66.86;100905.38;5076043;28;20039;-46
2022/04/25 01:17:39;;;;;;;14.80;6.90;;;;;;;7.91;66.59;100903.31;5076744;28;20104;-46
2022/04/25 01:20:06;;;;;;;11.65;6.82;;;;;;;7.90;66.69;100901.69;5073134;28;20527;-46
2022/04/25 01:22:44;;;;;;;13.15;6.95;;;;;;;7.91;66.87;100906.00;5074371;28;20261;-49
2022/04/25 01:27:55;;;;;;;13.52;7.43;;;;;;;7.94;66.36;100902.84;5077280;28;20066;-46
2022/04/25 01:30:20;;;;;;;11.23;7.43;;;;;;;7.97;66.60;100902.41;5076543;28;20126;-50
2022/04/25 01:32:46;;;;;;;14.38;7.40;;;;;;;7.98;66.19;100901.34;5074066;28;20481;-46
2022/04/25 01:35:12;;;;;;;11.65;7.05;;;;;;;7.95;66.69;100899.16;5076427;28;20032;-46
2022/04/25 01:37:38;;;;;;;14.63;7.53;;;;;;;7.94;66.70;100902.03;5067282;28;20031;-48
2022/04/25 01:40:04;;;;;;;11.10;7.32;;;;;;;7.91;66.82;100897.16;5076734;28;20039;-46
2022/04/25 01:42:30;;;;;;;11.85;7.18;;;;;;;7.83;67.06;100901.75;5073550;28;20127;-47
2022/04/25 01:44:55;;;;;;;13.35;7.43;;;;;;;7.77;67.03;100899.19;5077732;28;20076;-48
2022/04/25 01:47:21;;;;;;;14.60;7.00;;;;;;;7.77;67.21;100901.88;5077493;28;20103;-47
2022/04/25 01:49:46;;;;;;;13.35;7.47;;;;;;;7.75;67.59;100904.75;5076035;28;20024;-46
2022/04/25 01:52:27;;;;;;;11.60;7.38;;;;;;;7.71;67.38;100908.06;5073172;28;20515;-47
2022/04/25 01:54:53;;;;;;;14.38;7.78;;;;;;;7.73;67.35;100900.69;5075954;28;20058;-46
2022/04/25 01:57:18;;;;;;;10.98;7.30;;;;;;;7.74;67.70;100900.47;5076417;28;20111;-49
2022/04/25 01:59:45;;;;;;;11.32;7.32;;;;;;;7.77;67.29;100905.34;5077269;28;20032;-46
2022/04/25 02:02:14;;;;;;;13.40;7.85;;;;;;;7.80;67.40;100899.56;5073402;28;20020;-46
2022/04/25 02:04:40;;;;;;;14.50;7.70;;;;;;;7.83;67.40;100903.63;5071345;28;20486;-45
2022/04/25 02:07:07;;;;;;;15.75;7.57;;;;;;;7.80;67.57;100901.41;5071695;28;20031;-45
2022/04/25 02:09:32;;;;;;;10.00;6.65;;;;;;;7.79;67.44;100905.13;5069701;28;20024;-48
2022/04/25 02:11:58;;;;;;;12.85;7.22;;;;;;;7.78;67.80;100906.16;5072173;28;20028;-48
2022/04/25 02:14:23;;;;;;;14.30;7.75;;;;;;;7.80;67.56;100898.75;5075779;28;20508;-46
2022/04/25 02:16:49;;;;;;;15.15;7.65;;;;;;;7.77;67.81;100901.88;5076268;28;20039;-48
2022/04/25 02:19:14;;;;;;;14.82;7.35;;;;;;;7.73;67.76;100906.84;5075660;28;20027;-50
2022/04/25 02:21:40;;;;;;;12.27;7.25;;;;;;;7.68;68.44;100908.53;5068446;28;20032;-49
2022/04/25 02:24:06;;;;;;;17.88;6.95;;;;;;;7.67;68.08;100910.38;5071337;28;20023;-48
2022/04/25 02:26:32;;;;;;;11.80;7.60;;;;;;;7.69;68.40;100918.16;5071326;28;20034;-48
2022/04/25 02:28:57;;;;;;;14.32;7.38;;;;;;;7.68;68.24;100912.00;5068499;28;20037;-46
2022/04/25 02:31:24;;;;;;;13.90;8.38;;;;;;;7.69;68.58;100916.31;5076500;28;20032;-46
2022/04/25 02:33:50;;;;;;;13.75;6.60;;;;;;;7.71;68.18;100919.56;5073579;28;20039;-48
2022/04/25 02:36:16;;;;;;;11.23;6.15;;;;;;;7.76;68.19;100916.25;5069728;28;20036;-47
2022/04/25 02:38:42;;;;;;;13.68;7.40;;;;;;;7.79;67.90;100908.59;5072609;28;20121;-49
2022/04/25 02:41:10;;;;;;;15.23;7.88;;;;;;;7.80;67.97;100922.75;5075376;28;20405;-46
2022/04/25 02:43:44;;;;;;;11.02;7.47;;;;;;;7.77;68.46;100912.53;5072600;28;20151;-49
2022/04/25 02:46:14;;;;;;;14.68;7.15;;;;;;;7.75;68.28;100919.94;5075620;28;20052;-48
2022/04/25 02:48:42;;;;;;;13.13;7.18;;;;;;;7.75;68.24;100909.28;5073651;28;20412;-47
2022/04/25 02:51:09;;;;;;;12.85;6.93;;;;;;;7.76;68.44;100918.91;5071116;28;21616;-47
2022/04/25 02:53:35;;;;;;;12.23;6.60;;;;;;;7.73;68.81;100916.69;5076436;28;20398;-46
2022/04/25 02:56:02;;;;;;;13.20;7.05;;;;;;;7.71;68.37;100918.75;5077577;28;20032;-46
2022/04/25 02:58:29;;;;;;;12.65;7.75;;;;;;;7.70;68.40;100917.94;5075001;28;20029;-48
2022/04/25 03:00:55;;;;;;;13.93;6.60;;;;;;;7.64;68.73;100918.84;5076452;28;20016;-47
2022/04/25 03:03:21;;;;;;;12.82;6.32;;;;;;;7.67;68.77;100923.72;5076017;28;20035;-48
2022/04/25 03:05:49;;;;;;;10.63;6.10;;;;;;;7.71;68.31;100922.22;5075008;28;20047;-48
2022/04/25 03:08:17;;;;;;;12.43;5.90;;;;;;;7.77;68.51;100917.88;5072512;28;20024;-49
2022/04/25 03:10:45;;;;;;;13.88;5.35;;;;;;;7.79;68.16;100915.78;5075322;28;20109;-46
2022/04/25 03:13:12;;;;;;;13.88;7.45;;;;;;;7.78;68.42;100914.97;5069683;28;20089;-47
2022/04/25 03:15:38;;;;;;;13.15;5.85;;;;;;;7.75;68.69;100910.09;5075533;28;20043;-48
2022/04/25 03:18:11;;;;;;;14.82;7.18;;;;;;;7.77;68.21;100917.88;5074967;28;20028;-47
2022/04/25 03:20:37;;;;;;;14.88;6.97;;;;;;;7.78;68.44;100919.50;5076335;28;20530;-46
2022/04/25 03:23:05;;;;;;;10.30;6.28;;;;;;;7.79;68.28;100913.94;5075116;28;20057;-45
2022/04/25 03:25:31;;;;;;;10.18;6.38;;;;;;;7.80;68.44;100917.41;5073275;28;20149;-47
2022/04/25 03:27:58;;;;;;;15.57;6.65;;;;;;;7.82;68.26;100918.00;5074395;28;20024;-47
2022/04/25 03:30:23;;;;;;;13.70;6.70;;;;;;;7.82;68.08;100918.00;5080393;28;20084;-47
2022/04/25 03:32:50;;;;;;;12.30;6.38;;;;;;;7.77;68.38;100912.53;5075981;28;20040;-45
2022/04/25 03:35:17;;;;;;;16.77;7.05;;;;;;;7.72;68.21;100915.88;5076958;28;20032;-48
2022/04/25 03:37:44;;;;;;;14.00;7.00;;;;;;;7.67;68.68;100912.25;5077552;28;20024;-48
2022/04/25 03:40:10;;;;;;;10.88;5.88;;;;;;;7.67;68.42;100922.91;5078664;28;20435;-46
2022/04/25 03:42:40;;;;;;;14.52;6.22;;;;;;;7.66;68.59;100919.44;5078721;28;20029;-47
2022/04/25 03:45:09;;;;;;;14.32;6.18;;;;;;;7.66;68.57;100923.94;5079830;28;20428;-47
2022/04/25 03:47:41;;;;;;;10.82;5.78;;;;;;;7.67;68.71;100928.25;5077698;28;20027;-46
2022/04/25 03:50:08;;;;;;;11.40;5.50;;;;;;;7.70;68.59;100928.59;5078429;28;20085;-46
2022/04/25 03:52:35;;;;;;;9.27;5.72;;;;;;;7.74;68.56;100937.81;5079264;28;20119;-46
2022/04/25 03:57:48;;;;;;;11.43;6.85;;;;;;;7.69;68.53;100934.97;5084185;28;20047;-47
2022/04/25 04:00:14;;;;;;;12.20;6.50;;;;;;;7.68;68.51;100937.88;5076260;28;20470;-44
2022/04/25 04:02:39;;;;;;;12.10;6.55;;;;;;;7.72;68.64;100939.03;5079258;28;20103;-46
2022/04/25 04:05:05;;;;;;;12.63;6.45;;;;;;;7.69;68.46;100942.97;5080825;28;20485;-45
2022/04/25 04:07:31;;;;;;;16.10;6.10;;;;;;;7.70;68.36;100949.13;5081702;28;20047;-45
2022/04/25 04:09:57;;;;;;;14.18;6.35;;;;;;;7.68;68.45;100948.53;5075964;28;20036;-45
2022/04/25 04:12:25;;;;;;;12.02;6.70;;;;;;;7.69;68.52;100952.81;5078114;28;20043;-44
2022/04/25 04:14:51;;;;;;;11.93;5.85;;;;;;;7.70;68.37;100954.47;5080945;28;20028;-45
2022/04/25 04:17:17;;;;;;;15.38;7.13;;;;;;;7.71;68.23;100956.09;5082181;28;20035;-45
2022/04/25 04:19:43;;;;;;;11.40;6.15;;;;;;;7.68;68.70;100956.53;5082979;28;20036;-45
2022/04/25 04:22:09;;;;;;;12.30;6.05;;;;;;;7.63;68.59;100961.72;5081773;28;20500;-46
2022/04/25 04:24:35;;;;;;;18.35;5.63;;;;;;;7.63;68.55;100959.88;5081226;28;20039;-46
2022/04/25 04:27:04;;;;;;;15.88;5.65;;;;;;;7.64;68.41;100969.50;5077355;28;20074;-46
2022/04/25 04:29:31;;;;;;;11.85;6.03;;;;;;;7.65;68.62;100965.00;5080551;28;20031;-45
2022/04/25 04:31:58;;;;;;;12.60;6.50;;;;;;;7.64;68.67;100971.38;5078662;28;20541;-45
2022/04/25 04:34:24;;;;;;;14.57;6.35;;;;;;;7.66;68.51;100979.94;5075296;28;20125;-47
2022/04/25 04:36:51;;;;;;;17.25;6.60;;;;;;;7.66;68.59;100977.28;5079483;28;20201;-47
2022/04/25 04:39:17;;;;;;;10.77;6.05;;;;;;;7.64;68.31;100982.03;5079333;28;20502;-45
2022/04/25 04:41:42;;;;;;;11.30;5.82;;;;;;;7.61;68.63;100980.63;5080157;28;20024;-45
2022/04/25 04:44:08;;;;;;;11.48;5.70;;;;;;;7.61;68.48;100985.16;5079132;28;20036;-46
2022/04/25 04:46:33;;;;;;;11.13;5.65;;;;;;;7.62;68.73;100987.59;5073496;27;20016;-45
2022/04/25 04:48:59;;;;;;;18.02;5.40;;;;;;;7.64;68.26;100993.50;5076214;28;20062;-47
2022/04/25 04:51:25;;;;;;;11.00;5.78;;;;;;;7.59;68.77;100996.03;5078575;28;20396;-45
2022/04/25 04:53:50;;;;;;;11.63;5.20;;;;;;;7.58;68.72;101000.56;5075995;28;20397;-45
2022/04/25 04:56:16;;;;;;;9.25;5.38;;;;;;;7.58;68.64;101002.41;5077548;28;20028;-45
2022/04/25 04:58:41;;;;;;;11.52;5.45;;;;;;;7.58;68.61;101002.41;5075937;28;20032;-46
2022/04/25 05:01:07;;;;;;;9.85;5.72;;;;;;;7.59;68.61;101006.69;5078197;28;20024;-46
2022/04/25 05:03:34;;;;;;;11.32;6.40;;;;;;;7.62;68.32;101005.44;5073713;28;20032;-46
2022/04/25 05:05:59;;;;;;;11.20;5.30;;;;;;;7.62;68.19;101005.44;5077169;28;20080;-45
2022/04/25 05:08:25;;;;;;;10.80;4.78;;;;;;;7.61;68.33;101009.16;5075429;28;20019;-46
2022/04/25 05:10:51;;;;;;;9.43;5.20;;;;;;;7.61;68.39;101014.47;5082693;28;20024;-45
2022/04/25 05:13:17;;;;;;;9.43;5.45;;;;;;;7.62;68.41;101021.44;5079966;28;20459;-47
2022/04/25 05:15:43;;;;;;;10.43;5.43;;;;;;;7.64;68.06;101020.19;5078823;28;20092;-47
2022/04/25 05:18:08;;;;;;;13.50;6.50;;;;;;;7.66;68.21;101027.94;5074596;28;20039;-46
2022/04/25 05:20:34;;;;;;;8.75;5.68;;;;;;;7.65;68.39;101026.31;5075817;28;20099;-45
2022/04/25 05:23:02;;;;;;;9.05;5.63;;;;;;;7.62;68.58;101026.78;5081251;28;20378;-45
2022/04/25 05:25:28;;;;;;;11.88;5.97;;;;;;;7.62;68.51;101026.78;5075753;28;20045;-45
2022/04/25 05:27:55;;;;;;;12.32;6.57;;;;;;;7.63;68.16;101033.72;5074174;28;20140;-46
2022/04/25 05:30:22;;;;;;;11.50;6.40;;;;;;;7.61;68.29;101031.28;5076208;28;20028;-46
2022/04/25 05:32:52;;;;;;;14.75;6.18;;;;;;;7.62;68.48;101032.91;5076784;28;20760;-46
2022/04/25 05:35:26;;;;;;;10.10;6.07;;;;;;;7.65;68.06;101035.13;5075503;28;20030;-46
2022/04/25 05:37:52;;;;;;;10.40;5.60;;;;;;;7.66;68.64;101034.09;5080361;28;20032;-46
2022/04/25 05:40:18;;;;;;;11.05;6.10;;;;;;;7.68;68.26;101040.03;5075038;28;20016;-45
2022/04/25 05:42:45;;;;;;;10.65;6.47;;;;;;;7.73;68.28;101045.53;5080863;28;20024;-46
2022/04/25 05:45:12;;;;;;;9.38;5.53;;;;;;;7.77;67.95;101043.22;5078204;28;20495;-46
2022/04/25 05:47:39;;;;;;;18.70;6.47;;;;;;;7.78;67.82;101043.00;5074782;28;20095;-46
2022/04/25 05:52:51;;;;;;;9.73;5.22;;;;;;;7.83;68.06;101050.34;5085109;28;20043;-44
2022/04/25 05:55:17;;;;;;;8.75;5.32;;;;;;;7.85;67.98;101053.59;5079269;28;20024;-45
2022/04/25 05:57:43;;;;;;;9.45;5.63;;;;;;;7.85;68.18;101053.59;5073015;28;20038;-46
2022/04/25 06:00:11;;;;;;;8.27;5.63;;;;;;;7.86;67.98;101055.22;5075720;28;20021;-46
2022/04/25 06:02:38;;;;;;;10.07;5.75;;;;;;;7.87;67.90;101062.19;5075841;28;20032;-47
2022/04/25 06:05:05;;;;;;;8.98;4.70;;;;;;;7.88;67.80;101058.47;5079939;28;20024;-46
2022/04/25 06:07:31;;;;;;;8.10;4.63;;;;;;;7.87;67.89;101057.66;5078770;28;20032;-46
2022/04/25 06:09:57;;;;;;;9.50;4.80;;;;;;;7.89;68.16;101054.78;5080052;28;20027;-46
2022/04/25 06:12:23;;;;;;;8.50;4.60;;;;;;;7.94;67.68;101060.28;5079045;28;20478;-46
2022/04/25 06:14:48;;;;;;;10.10;5.30;;;;;;;7.97;67.88;101062.50;5081953;28;20043;-46
2022/04/25 06:17:15;;;;;;;11.35;5.63;;;;;;;8.02;67.57;101065.28;5078322;28;20058;-45
2022/04/25 06:19:42;;;;;;;8.32;4.60;;;;;;;8.06;67.33;101069.16;5080311;28;20032;-46
2022/04/25 06:22:09;;;;;;;10.05;5.70;;;;;;;8.09;67.32;101066.06;5080363;28;20016;-48
2022/04/25 06:24:35;;;;;;;10.80;5.78;;;;;;;8.15;67.57;101069.66;5072509;28;20644;-46
2022/04/25 06:27:02;;;;;;;11.48;5.50;;;;;;;8.18;67.32;101080.72;5076325;28;20020;-46
2022/04/25 06:29:29;;;;;;;6.97;5.03;;;;;;;8.17;67.23;101073.75;5076150;28;20068;-46
2022/04/25 06:31:55;;;;;;;8.32;4.78;;;;;;;8.16;67.65;101080.13;5067407;28;20039;-46
2022/04/25 06:34:21;;;;;;;12.77;5.22;;;;;;;8.19;67.31;101076.19;5074206;28;20028;-46
2022/04/25 06:36:50;;;;;;;12.40;4.90;;;;;;;8.23;67.48;101080.03;5073625;28;20479;-46
2022/04/25 06:39:18;;;;;;;9.82;5.35;;;;;;;8.27;67.49;101083.09;5072451;28;20130;-47
2022/04/25 06:41:43;;;;;;;11.73;5.30;;;;;;;8.32;67.29;101086.72;5071854;28;20029;-46
2022/04/25 06:44:09;;;;;;;11.13;5.13;;;;;;;8.37;67.45;101088.72;5078589;28;20067;-46
2022/04/25 06:46:35;;;;;;;13.55;6.20;;;;;;;8.39;66.77;101083.97;5076867;28;20653;-46
2022/04/25 06:51:44;;;;;;;8.68;5.63;;;;;;;8.44;67.04;101094.81;5074298;28;20035;-45
2022/04/25 06:54:10;;;;;;;12.02;6.20;;;;;;;8.47;66.70;101097.03;5071637;28;20024;-46
2022/04/25 06:56:35;;;;;;;14.82;6.50;;;;;;;8.48;66.67;101104.00;5074893;28;20036;-46
2022/04/25 06:59:01;;;;;;;9.10;6.30;;;;;;;8.49;66.56;101102.97;5072369;28;20103;-46
2022/04/25 07:01:26;;;;;;;11.60;5.93;;;;;;;8.54;66.80;101097.75;5076242;28;20024;-48
2022/04/25 07:03:52;;;;;;;7.03;4.80;;;;;;;8.57;66.39;101104.50;5076025;28;20454;-46
2022/04/25 07:06:17;;;;;;;9.98;5.47;;;;;;;8.57;66.34;101107.97;5077915;28;20674;-47
2022/04/25 07:08:43;;;;;;;12.07;5.72;;;;;;;8.56;66.36;101109.00;5079838;28;20028;-46
2022/04/25 07:11:09;;;;;;;10.40;5.15;;;;;;;8.58;66.62;101109.59;5082800;28;20032;-45
2022/04/25 07:13:34;;;;;;;9.30;5.28;;;;;;;8.63;66.17;101115.09;5078500;28;20097;-45
2022/04/25 07:16:00;;;;;;;7.38;4.72;;;;;;;8.67;66.43;101108.25;5074851;28;20131;-46
2022/04/25 07:18:25;;;;;;;7.82;4.32;;;;;;;8.76;66.19;101114.09;5080125;28;20404;-46
2022/04/25 07:20:51;;;;;;;7.38;4.07;;;;;;;8.83;65.92;101111.34;5077748;28;20461;-46
2022/04/25 07:28:52;;;;;;;9.57;4.38;;;;;;;9.01;65.61;101121.97;5080597;28;20398;-46
2022/04/25 07:31:18;;;;;;;6.68;4.63;;;;;;;9.04;65.10;101124.19;5079882;28;20058;-45
2022/04/25 07:33:45;;;;;;;8.02;4.60;;;;;;;9.06;65.41;101124.75;5081067;28;20195;-45
2022/04/25 07:36:15;;;;;;;7.97;4.40;;;;;;;9.13;65.27;101125.47;5072112;28;20397;-45
2022/04/25 07:38:41;;;;;;;6.93;4.70;;;;;;;9.17;64.81;101123.16;5078584;28;20037;-46
2022/04/25 07:41:07;;;;;;;8.95;4.70;;;;;;;9.18;65.11;101117.59;5080530;28;20013;-45
2022/04/25 07:43:34;;;;;;;7.10;4.88;;;;;;;9.22;64.88;101124.09;5077915;28;20071;-45
2022/04/25 07:46:00;;;;;;;9.63;5.07;;;;;;;9.21;64.60;101117.13;5079312;28;20031;-45
2022/04/25 07:48:26;;;;;;;8.98;5.00;;;;;;;9.25;64.82;101118.28;5081563;28;20020;-45
2022/04/25 07:50:51;;;;;;;13.90;5.63;;;;;;;9.31;64.42;101122.72;5073483;28;20024;-46
2022/04/25 07:53:17;;;;;;;13.68;6.30;;;;;;;9.37;64.41;101121.81;5082419;28;20020;-46
2022/04/25 07:55:43;;;;;;;9.43;6.00;;;;;;;9.47;64.28;101115.06;5076008;28;20049;-46
2022/04/25 07:58:08;;;;;;;12.23;6.78;;;;;;;9.53;64.19;101125.66;5077671;28;20030;-46
2022/04/25 08:00:35;;;;;;;22.20;10.80;;;;;;;9.60;64.10;101134.38;5078998;28;20169;-46
2022/04/25 08:03:01;;;;;;;28.52;11.98;;;;;;;9.61;64.02;101129.84;5078964;28;20097;-45
2022/04/25 08:05:27;;;;;;;28.42;12.88;;;;;;;9.55;64.15;101141.47;5076253;28;20031;-46
2022/04/25 08:07:52;;;;;;;29.20;13.02;;;;;;;9.59;63.81;101137.28;5078860;28;20386;-45
2022/04/25 08:10:18;;;;;;;27.90;14.05;;;;;;;9.62;64.14;101140.31;5079978;28;20036;-46
2022/04/25 08:18:13;;;;;;;28.42;12.73;;;;;;;9.53;63.72;101147.06;5072804;28;20504;-45
2022/04/25 08:20:39;;;;;;;28.13;13.48;;;;;;;9.54;63.65;101147.88;5078786;28;20039;-46
2022/04/25 08:23:09;;;;;;;28.38;12.98;;;;;;;9.55;63.55;101144.16;5076418;28;20031;-45
2022/04/25 08:25:36;;;;;;;24.98;12.80;;;;;;;9.58;63.71;101157.06;5078164;28;20024;-46
2022/04/25 08:28:02;;;;;;;26.73;12.82;;;;;;;9.64;63.61;101145.44;5079133;28;20025;-46
2022/04/25 08:30:28;;;;;;;24.27;13.00;;;;;;;9.69;63.45;101154.41;5077770;28;20182;-46
2022/04/25 08:32:55;;;;;;;24.10;12.52;;;;;;;9.75;63.48;101157.19;5079770;28;20020;-47
2022/04/25 08:35:21;;;;;;;29.77;12.18;;;;;;;9.81;63.34;101158.94;5077958;28;20056;-46
2022/04/25 08:37:48;;;;;;;24.35;11.63;;;;;;;9.85;63.28;101162.75;5076834;28;20052;-45
2022/04/25 08:40:14;;;;;;;20.95;11.02;;;;;;;9.89;62.93;101154.06;5076507;28;20016;-47
2022/04/25 08:42:40;;;;;;;15.98;8.30;;;;;;;9.93;63.34;101152.53;5074822;28;20028;-46
2022/04/25 08:45:06;;;;;;;13.38;7.70;;;;;;;9.92;63.06;101156.25;5078681;28;20107;-47
2022/04/25 08:47:39;;;;;;;16.85;7.43;;;;;;;10.02;62.81;101154.84;5073536;28;20474;-47
2022/04/25 08:50:05;;;;;;;15.23;7.75;;;;;;;10.10;62.60;101159.84;5078971;28;20031;-46
2022/04/25 08:52:32;;;;;;;10.68;5.53;;;;;;;10.10;62.39;101171.38;5073501;28;20074;-46
2022/04/25 08:54:58;;;;;;;12.90;5.10;;;;;;;10.14;62.78;101169.84;5073784;28;20478;-46
2022/04/25 08:57:27;;;;;;;10.52;4.13;;;;;;;10.17;62.32;101174.72;5075185;28;20028;-46
2022/04/25 08:59:55;;;;;;;9.57;4.95;;;;;;;10.18;62.32;101173.69;5075736;28;20044;-46
2022/04/25 09:02:22;;;;;;;9.73;4.32;;;;;;;10.22;62.49;101176.72;5074201;28;20040;-47
2022/04/25 09:04:49;;;;;;;10.02;5.28;;;;;;;10.28;62.29;101175.81;5079562;28;20494;-46
2022/04/25 09:07:18;;;;;;;10.02;4.38;;;;;;;10.34;61.83;101177.53;5076996;28;20042;-46
2022/04/25 09:09:44;;;;;;;7.55;4.65;;;;;;;10.37;62.12;101184.28;5071339;28;20482;-46
2022/04/25 09:12:12;;;;;;;8.40;4.10;;;;;;;10.40;61.93;101176.59;5077862;28;20030;-47
2022/04/25 09:14:40;;;;;;;8.10;3.80;;;;;;;10.48;61.55;101173.56;5075102;28;20497;-45
2022/04/25 09:17:06;;;;;;;6.53;4.00;;;;;;;10.52;61.32;101172.03;5080725;28;20465;-47
2022/04/25 09:19:33;;;;;;;7.25;4.28;;;;;;;10.65;61.15;101172.81;5075877;28;20094;-46
2022/04/25 09:21:59;;;;;;;6.47;3.90;;;;;;;10.79;60.84;101182.22;5076682;28;20025;-47
2022/04/25 09:24:28;;;;;;;5.72;3.60;;;;;;;10.95;60.95;101175.25;5076590;28;20035;-47
2022/04/25 09:27:09;;;;;;;10.18;3.60;;;;;;;11.04;60.46;101176.50;5078078;28;20039;-45
2022/04/25 09:29:36;;;;;;;8.23;4.18;;;;;;;11.11;60.23;101180.66;5074796;28;20035;-45
2022/04/25 09:32:03;;;;;;;7.63;3.42;;;;;;;11.12;59.92;101184.97;5073880;28;20379;-46
2022/04/25 09:37:15;;;;;;;5.38;3.33;;;;;;;11.28;59.89;101180.69;5072539;28;20050;-46
2022/04/25 09:39:40;;;;;;;6.85;3.50;;;;;;;11.31;59.75;101190.09;5076855;28;20089;-47
2022/04/25 09:42:07;;;;;;;12.23;4.28;;;;;;;11.35;59.96;101177.84;5076987;28;20099;-45
2022/04/25 09:44:55;;;;;;;10.55;4.13;;;;;;;11.22;58.58;101184.34;5076640;28;20085;-45
2022/04/25 09:47:37;;;;;;;8.52;3.83;;;;;;;11.12;58.81;101192.19;5072371;28;20028;-47
2022/04/25 09:50:07;;;;;;;6.65;3.47;;;;;;;11.16;59.41;101186.13;5075472;28;20139;-47
2022/04/25 09:52:35;;;;;;;6.75;3.50;;;;;;;11.21;59.22;101190.75;5076631;28;20035;-46
2022/04/25 09:55:14;;;;;;;8.23;3.38;;;;;;;11.25;58.99;101191.91;5079956;28;20028;-46
2022/04/25 09:57:40;;;;;;;8.75;4.35;;;;;;;11.35;58.95;101197.44;5073497;28;20024;-45
2022/04/25 10:00:06;;;;;;;4.88;2.95;;;;;;;11.40;58.96;101194.03;5073282;28;20478;-46
2022/04/25 10:02:37;;;;;;;7.93;3.30;;;;;;;11.51;58.64;101203.91;5074648;28;20037;-46
2022/04/25 10:05:15;;;;;;;5.53;3.33;;;;;;;11.53;58.37;101193.72;5079817;28;20028;-46
2022/04/25 10:07:42;;;;;;;5.93;3.15;;;;;;;11.56;58.67;101193.25;5072670;28;20081;-46
2022/04/25 10:10:12;;;;;;;11.23;3.88;;;;;;;11.51;58.34;101190.47;5072022;28;20051;-46
2022/04/25 10:12:39;;;;;;;6.05;4.03;;;;;;;11.57;58.57;101194.06;5077313;28;20028;-48
2022/04/25 10:15:08;;;;;;;7.18;3.72;;;;;;;11.59;58.44;101191.94;5076019;28;20036;-46
2022/04/25 10:17:40;;;;;;;9.45;3.25;;;;;;;11.63;58.45;101193.06;5076641;28;20400;-47
2022/04/25 10:20:07;;;;;;;5.35;3.17;;;;;;;11.66;58.36;101185.34;5074585;28;20057;-46
2022/04/25 10:22:34;;;;;;;6.72;2.97;;;;;;;11.76;58.35;101190.88;5071637;28;20393;-47
2022/04/25 10:24:59;;;;;;;7.57;3.28;;;;;;;11.83;58.10;101196.09;5073473;28;20144;-47
2022/04/25 10:27:30;;;;;;;6.72;3.40;;;;;;;11.80;57.49;101189.34;5078288;28;20473;-48
2022/04/25 10:30:00;;;;;;;4.90;3.05;;;;;;;11.78;58.28;101196.84;5075980;28;20027;-46
2022/04/25 10:32:25;;;;;;;6.18;3.28;;;;;;;11.70;58.01;101199.91;5076387;28;20039;-48
2022/04/25 10:35:04;;;;;;;5.07;2.85;;;;;;;11.69;58.17;101197.47;5074683;28;20024;-46
2022/04/25 10:37:40;;;;;;;4.75;2.88;;;;;;;11.52;57.62;101202.03;5075020;28;20028;-46
2022/04/25 10:40:12;;;;;;;9.18;3.30;;;;;;;11.57;58.00;101202.09;5074673;28;20043;-46
2022/04/25 10:45:59;;;;;;;6.88;3.20;;;;;;;11.89;58.21;101197.00;5075186;28;20043;-47
2022/04/25 10:48:26;;;;;;;6.68;3.30;;;;;;;12.14;57.89;101194.69;5071919;28;20028;-47
2022/04/25 10:51:08;;;;;;;8.35;3.35;;;;;;;12.30;57.04;101198.41;5076578;28;20025;-47
2022/04/25 10:53:56;;;;;;;8.73;2.70;;;;;;;12.32;56.71;101201.63;5075054;28;20281;-46
2022/04/25 10:56:21;;;;;;;8.77;3.30;;;;;;;12.48;56.82;101199.97;5074807;28;20039;-49
2022/04/25 10:59:26;;;;;;;5.45;2.90;;;;;;;12.52;56.17;101201.09;5076084;28;21751;-47
2022/04/25 11:01:53;;;;;;;5.93;3.10;;;;;;;12.77;56.34;101204.09;5073806;28;20497;-46
2022/04/25 11:04:20;;;;;;;7.18;3.30;;;;;;;12.98;56.21;101203.25;5079660;28;20096;-48
2022/04/25 11:06:47;;;;;;;6.55;2.83;;;;;;;13.14;55.79;101208.81;5073853;28;20432;-46
2022/04/25 11:09:39;;;;;;;6.80;2.90;;;;;;;13.18;54.08;101209.94;5078139;28;20035;-46
2022/04/25 11:12:05;;;;;;;5.18;3.00;;;;;;;13.36;55.33;101216.84;5073032;28;20249;-46
2022/04/25 11:14:31;;;;;;;4.78;2.78;;;;;;;13.59;54.92;101211.13;5074271;28;20048;-46
2022/04/25 11:17:11;;;;;;;5.32;2.92;;;;;;;13.75;54.07;101220.94;5072139;28;20063;-46
2022/04/25 11:19:47;;;;;;;4.75;2.45;;;;;;;13.93;53.81;101225.13;5073098;28;20109;-47
2022/04/25 11:22:49;;;;;;;10.15;3.83;;;;;;;13.93;53.39;101221.63;5076373;28;20115;-46
2022/04/25 11:25:27;;;;;;;5.63;3.08;;;;;;;14.00;52.27;101219.50;5022418;28;20481;-46
2022/04/25 11:28:07;;;;;;;6.32;3.60;;;;;;;14.01;51.92;101234.63;5066137;28;20043;-47
2022/04/25 11:30:33;;;;;;;4.15;2.53;;;;;;;14.09;53.73;101234.94;5069433;28;20083;-47
2022/04/25 11:33:07;;;;;;;6.63;3.13;;;;;;;14.16;53.26;101232.81;5076003;28;20528;-48
2022/04/25 11:35:33;;;;;;;8.15;3.15;;;;;;;14.33;53.10;101238.03;5076579;28;20054;-47
2022/04/25 11:37:59;;;;;;;5.03;2.85;;;;;;;14.42;52.74;101235.69;5074744;28;20198;-46
2022/04/25 11:40:29;;;;;;;8.70;3.30;;;;;;;14.57;52.63;101233.09;5072614;28;20033;-50
2022/04/25 11:42:56;;;;;;;13.02;4.00;;;;;;;14.70;52.35;101237.19;5072785;28;20393;-46
2022/04/25 11:45:22;;;;;;;9.32;2.92;;;;;;;14.88;52.13;101235.91;5070882;28;20105;-47
2022/04/25 11:47:47;;;;;;;8.68;3.15;;;;;;;14.92;51.54;101237.03;5070566;28;20054;-48
2022/04/25 11:50:13;;;;;;;9.60;3.30;;;;;;;14.96;51.58;101235.41;5073394;28;20469;-48
2022/04/25 11:52:46;;;;;;;12.35;3.67;;;;;;;14.92;49.97;101245.13;5076043;28;20032;-48
2022/04/25 11:55:12;;;;;;;7.72;3.45;;;;;;;15.08;51.01;101238.66;5073288;28;20031;-47